sensor_id;sensor_type;location;lat;lon;timestamp;P1;durP1;ratioP1;P2;durP2;ratioP2
1204;SDS011;592;48.764;9.174;2022-10-16T00:02:12;7.30;;;2.63;;
1204;SDS011;592;48.764;9.174;2022-10-16T00:04:38;4.20;;;2.50;;
1204;SDS011;592;48.764;9.174;2022-10-16T00:07:05;5.17;;;1.97;;
1204;SDS011;592;48.764;9.174;2022-10-16T00:09:32;5.17;;;2.40;;
1204;SDS011;592;48.764;9.174;2022-10-16T00:11:59;6.20;;;2.17;;
1204;SDS011;592;48.764;9.174;2022-10-16T00:14:25;3.70;;;2.10;;
1204;SDS011;592;48.764;9.174;2022-10-16T00:16:52;5.73;;;2.20;;
1204;SDS011;592;48.764;9.174;2022-10-16T00:19:20;6.33;;;2.30;;
1204;SDS011;592;48.764;9.174;2022-10-16T00:21:47;6.53;;;2.17;;
1204;SDS011;592;48.764;9.174;2022-10-16T00:24:14;5.83;;;2.23;;
1204;SDS011;592;48.764;9.174;2022-10-16T00:26:40;5.40;;;2.17;;
1204;SDS011;592;48.764;9.174;2022-10-16T00:29:08;4.67;;;2.43;;
1204;SDS011;592;48.764;9.174;2022-10-16T00:31:35;5.80;;;2.10;;
1204;SDS011;592;48.764;9.174;2022-10-16T00:34:02;5.07;;;2.20;;
1204;SDS011;592;48.764;9.174;2022-10-16T00:36:30;5.03;;;2.37;;
1204;SDS011;592;48.764;9.174;2022-10-16T00:38:57;3.90;;;2.30;;
1204;SDS011;592;48.764;9.174;2022-10-16T00:41:25;4.10;;;1.93;;
1204;SDS011;592;48.764;9.174;2022-10-16T00:43:55;5.13;;;2.03;;
1204;SDS011;592;48.764;9.174;2022-10-16T00:46:24;4.97;;;2.00;;
1204;SDS011;592;48.764;9.174;2022-10-16T00:48:55;6.20;;;2.50;;
1204;SDS011;592;48.764;9.174;2022-10-16T00:51:24;4.23;;;2.30;;
1204;SDS011;592;48.764;9.174;2022-10-16T00:53:57;6.10;;;2.07;;
1204;SDS011;592;48.764;9.174;2022-10-16T00:56:25;3.93;;;2.07;;
1204;SDS011;592;48.764;9.174;2022-10-16T00:58:52;4.80;;;2.43;;
1204;SDS011;592;48.764;9.174;2022-10-16T01:01:21;5.03;;;2.17;;
1204;SDS011;592;48.764;9.174;2022-10-16T01:03:48;5.73;;;2.20;;
1204;SDS011;592;48.764;9.174;2022-10-16T01:06:19;4.27;;;2.10;;
1204;SDS011;592;48.764;9.174;2022-10-16T01:11:41;4.00;;;2.13;;
1204;SDS011;592;48.764;9.174;2022-10-16T01:14:15;3.90;;;2.10;;
1204;SDS011;592;48.764;9.174;2022-10-16T01:16:48;3.80;;;2.20;;
1204;SDS011;592;48.764;9.174;2022-10-16T01:19:23;3.23;;;1.80;;
1204;SDS011;592;48.764;9.174;2022-10-16T01:22:04;4.50;;;1.90;;
1204;SDS011;592;48.764;9.174;2022-10-16T01:24:37;3.73;;;2.07;;
1204;SDS011;592;48.764;9.174;2022-10-16T01:27:08;4.00;;;2.00;;
1204;SDS011;592;48.764;9.174;2022-10-16T01:29:37;4.30;;;1.97;;
1204;SDS011;592;48.764;9.174;2022-10-16T01:32:10;4.57;;;2.00;;
1204;SDS011;592;48.764;9.174;2022-10-16T01:34:42;3.73;;;1.90;;
1204;SDS011;592;48.764;9.174;2022-10-16T01:37:15;4.27;;;2.00;;
1204;SDS011;592;48.764;9.174;2022-10-16T01:39:46;6.00;;;2.03;;
1204;SDS011;592;48.764;9.174;2022-10-16T01:42:20;4.77;;;2.07;;
1204;SDS011;592;48.764;9.174;2022-10-16T01:44:51;3.80;;;1.90;;
1204;SDS011;592;48.764;9.174;2022-10-16T01:47:19;5.30;;;1.87;;
1204;SDS011;592;48.764;9.174;2022-10-16T01:49:50;3.70;;;1.77;;
1204;SDS011;592;48.764;9.174;2022-10-16T01:52:19;4.80;;;2.37;;
1204;SDS011;592;48.764;9.174;2022-10-16T01:54:52;5.73;;;2.87;;
1204;SDS011;592;48.764;9.174;2022-10-16T01:57:23;4.63;;;2.10;;
1204;SDS011;592;48.764;9.174;2022-10-16T01:59:51;4.03;;;2.20;;
1204;SDS011;592;48.764;9.174;2022-10-16T02:02:21;4.10;;;1.80;;
1204;SDS011;592;48.764;9.174;2022-10-16T02:04:51;7.30;;;2.00;;
1204;SDS011;592;48.764;9.174;2022-10-16T02:07:23;6.87;;;2.33;;
1204;SDS011;592;48.764;9.174;2022-10-16T02:09:51;4.93;;;2.00;;
1204;SDS011;592;48.764;9.174;2022-10-16T02:12:19;4.37;;;2.53;;
1204;SDS011;592;48.764;9.174;2022-10-16T02:14:53;6.93;;;2.10;;
1204;SDS011;592;48.764;9.174;2022-10-16T02:17:21;3.80;;;1.93;;
1204;SDS011;592;48.764;9.174;2022-10-16T02:19:49;4.27;;;1.73;;
1204;SDS011;592;48.764;9.174;2022-10-16T02:22:20;6.67;;;2.10;;
1204;SDS011;592;48.764;9.174;2022-10-16T02:24:54;6.37;;;2.20;;
1204;SDS011;592;48.764;9.174;2022-10-16T02:27:26;6.07;;;2.30;;
1204;SDS011;592;48.764;9.174;2022-10-16T02:30:04;5.70;;;2.10;;
1204;SDS011;592;48.764;9.174;2022-10-16T02:32:34;4.33;;;1.60;;
1204;SDS011;592;48.764;9.174;2022-10-16T02:35:05;3.97;;;1.90;;
1204;SDS011;592;48.764;9.174;2022-10-16T02:37:34;4.23;;;1.90;;
1204;SDS011;592;48.764;9.174;2022-10-16T02:40:02;6.27;;;2.20;;
1204;SDS011;592;48.764;9.174;2022-10-16T02:42:34;4.67;;;1.70;;
1204;SDS011;592;48.764;9.174;2022-10-16T02:45:03;3.30;;;1.77;;
1204;SDS011;592;48.764;9.174;2022-10-16T02:47:30;3.47;;;1.97;;
1204;SDS011;592;48.764;9.174;2022-10-16T02:49:57;3.73;;;2.00;;
1204;SDS011;592;48.764;9.174;2022-10-16T02:52:24;5.33;;;2.13;;
1204;SDS011;592;48.764;9.174;2022-10-16T02:54:51;4.87;;;2.00;;
1204;SDS011;592;48.764;9.174;2022-10-16T02:57:18;4.20;;;1.80;;
1204;SDS011;592;48.764;9.174;2022-10-16T02:59:46;4.80;;;1.87;;
1204;SDS011;592;48.764;9.174;2022-10-16T03:02:13;5.73;;;1.80;;
1204;SDS011;592;48.764;9.174;2022-10-16T03:04:40;8.00;;;1.87;;
1204;SDS011;592;48.764;9.174;2022-10-16T03:07:07;5.43;;;2.20;;
1204;SDS011;592;48.764;9.174;2022-10-16T03:09:36;4.10;;;2.03;;
1204;SDS011;592;48.764;9.174;2022-10-16T03:12:03;4.17;;;1.93;;
1204;SDS011;592;48.764;9.174;2022-10-16T03:14:30;4.03;;;1.97;;
1204;SDS011;592;48.764;9.174;2022-10-16T03:16:58;8.47;;;2.10;;
1204;SDS011;592;48.764;9.174;2022-10-16T03:19:25;4.93;;;1.83;;
1204;SDS011;592;48.764;9.174;2022-10-16T03:21:52;6.10;;;2.40;;
1204;SDS011;592;48.764;9.174;2022-10-16T03:24:20;4.20;;;2.10;;
1204;SDS011;592;48.764;9.174;2022-10-16T03:26:47;4.70;;;2.40;;
1204;SDS011;592;48.764;9.174;2022-10-16T03:29:14;3.87;;;1.90;;
1204;SDS011;592;48.764;9.174;2022-10-16T03:31:40;3.83;;;2.00;;
1204;SDS011;592;48.764;9.174;2022-10-16T03:34:15;6.90;;;2.23;;
1204;SDS011;592;48.764;9.174;2022-10-16T03:36:45;4.30;;;2.20;;
1204;SDS011;592;48.764;9.174;2022-10-16T03:39:12;4.33;;;2.27;;
1204;SDS011;592;48.764;9.174;2022-10-16T03:41:39;4.47;;;2.00;;
1204;SDS011;592;48.764;9.174;2022-10-16T03:44:09;5.47;;;2.27;;
1204;SDS011;592;48.764;9.174;2022-10-16T03:46:38;4.43;;;2.07;;
1204;SDS011;592;48.764;9.174;2022-10-16T03:49:06;3.67;;;1.97;;
1204;SDS011;592;48.764;9.174;2022-10-16T03:51:35;6.77;;;2.27;;
1204;SDS011;592;48.764;9.174;2022-10-16T03:54:07;5.83;;;2.53;;
1204;SDS011;592;48.764;9.174;2022-10-16T03:56:35;5.10;;;2.00;;
1204;SDS011;592;48.764;9.174;2022-10-16T03:59:05;5.07;;;2.03;;
1204;SDS011;592;48.764;9.174;2022-10-16T04:01:41;5.07;;;2.30;;
1204;SDS011;592;48.764;9.174;2022-10-16T04:04:09;4.83;;;1.90;;
1204;SDS011;592;48.764;9.174;2022-10-16T04:06:51;4.83;;;2.10;;
1204;SDS011;592;48.764;9.174;2022-10-16T04:09:27;6.83;;;2.50;;
1204;SDS011;592;48.764;9.174;2022-10-16T04:11:57;7.07;;;2.50;;
1204;SDS011;592;48.764;9.174;2022-10-16T04:14:35;7.07;;;2.10;;
1204;SDS011;592;48.764;9.174;2022-10-16T04:17:21;5.80;;;2.03;;
1204;SDS011;592;48.764;9.174;2022-10-16T07:57:20;4.50;;;2.10;;
1204;SDS011;592;48.764;9.174;2022-10-16T07:59:47;3.50;;;1.67;;
1204;SDS011;592;48.764;9.174;2022-10-16T08:02:14;3.00;;;1.67;;
1204;SDS011;592;48.764;9.174;2022-10-16T08:04:41;3.70;;;2.00;;
1204;SDS011;592;48.764;9.174;2022-10-16T08:07:12;5.13;;;2.13;;
1204;SDS011;592;48.764;9.174;2022-10-16T08:09:39;16.80;;;2.43;;
1204;SDS011;592;48.764;9.174;2022-10-16T08:12:09;6.90;;;2.20;;
1204;SDS011;592;48.764;9.174;2022-10-16T08:17:35;7.07;;;2.20;;
1204;SDS011;592;48.764;9.174;2022-10-16T08:20:03;4.93;;;2.10;;
1204;SDS011;592;48.764;9.174;2022-10-16T08:22:30;4.03;;;2.13;;
1204;SDS011;592;48.764;9.174;2022-10-16T08:24:57;5.73;;;1.90;;
1204;SDS011;592;48.764;9.174;2022-10-16T08:27:24;8.30;;;2.33;;
1204;SDS011;592;48.764;9.174;2022-10-16T08:29:51;6.23;;;2.40;;
1204;SDS011;592;48.764;9.174;2022-10-16T08:32:17;4.97;;;2.13;;
1204;SDS011;592;48.764;9.174;2022-10-16T08:34:45;4.80;;;2.13;;
1204;SDS011;592;48.764;9.174;2022-10-16T08:37:12;6.27;;;2.00;;
1204;SDS011;592;48.764;9.174;2022-10-16T08:39:39;10.23;;;2.63;;
1204;SDS011;592;48.764;9.174;2022-10-16T08:42:18;9.83;;;2.30;;
1204;SDS011;592;48.764;9.174;2022-10-16T08:45:15;5.27;;;2.13;;
1204;SDS011;592;48.764;9.174;2022-10-16T08:48:00;5.50;;;2.17;;
1204;SDS011;592;48.764;9.174;2022-10-16T08:50:37;3.70;;;2.20;;
1204;SDS011;592;48.764;9.174;2022-10-16T08:53:06;4.43;;;2.10;;
1204;SDS011;592;48.764;9.174;2022-10-16T08:55:37;8.53;;;2.13;;
1204;SDS011;592;48.764;9.174;2022-10-16T08:58:10;5.70;;;2.60;;
1204;SDS011;592;48.764;9.174;2022-10-16T09:00:39;5.00;;;1.90;;
1204;SDS011;592;48.764;9.174;2022-10-16T09:03:10;3.83;;;2.03;;
1204;SDS011;592;48.764;9.174;2022-10-16T09:08:59;4.80;;;2.30;;
1204;SDS011;592;48.764;9.174;2022-10-16T09:51:16;5.60;;;1.97;;
1204;SDS011;592;48.764;9.174;2022-10-16T09:53:46;9.90;;;2.40;;
1204;SDS011;592;48.764;9.174;2022-10-16T09:56:31;4.63;;;2.10;;
1204;SDS011;592;48.764;9.174;2022-10-16T09:59:08;6.50;;;2.30;;
1204;SDS011;592;48.764;9.174;2022-10-16T10:01:38;8.40;;;2.40;;
1204;SDS011;592;48.764;9.174;2022-10-16T10:04:07;4.77;;;1.97;;
1204;SDS011;592;48.764;9.174;2022-10-16T10:06:36;4.87;;;1.90;;
1204;SDS011;592;48.764;9.174;2022-10-16T10:09:15;5.00;;;2.17;;
1204;SDS011;592;48.764;9.174;2022-10-16T10:11:51;3.47;;;1.80;;
1204;SDS011;592;48.764;9.174;2022-10-16T10:17:12;5.07;;;2.70;;
1204;SDS011;592;48.764;9.174;2022-10-16T10:19:43;4.70;;;1.70;;
1204;SDS011;592;48.764;9.174;2022-10-16T10:25:28;4.47;;;1.93;;
1204;SDS011;592;48.764;9.174;2022-10-16T10:31:17;6.50;;;2.30;;
1204;SDS011;592;48.764;9.174;2022-10-16T10:33:50;4.67;;;2.07;;
1204;SDS011;592;48.764;9.174;2022-10-16T10:36:28;3.60;;;1.60;;
1204;SDS011;592;48.764;9.174;2022-10-16T10:39:00;4.47;;;2.00;;
1204;SDS011;592;48.764;9.174;2022-10-16T10:44:27;7.30;;;1.80;;
1204;SDS011;592;48.764;9.174;2022-10-16T10:47:05;6.23;;;2.17;;
1204;SDS011;592;48.764;9.174;2022-10-16T10:49:45;4.73;;;2.00;;
1204;SDS011;592;48.764;9.174;2022-10-16T10:52:27;6.33;;;1.90;;
1204;SDS011;592;48.764;9.174;2022-10-16T10:55:10;5.50;;;2.00;;
1204;SDS011;592;48.764;9.174;2022-10-16T10:57:57;4.90;;;1.70;;
1204;SDS011;592;48.764;9.174;2022-10-16T11:00:36;4.20;;;2.10;;
1204;SDS011;592;48.764;9.174;2022-10-16T11:03:13;5.13;;;1.87;;
1204;SDS011;592;48.764;9.174;2022-10-16T11:05:53;5.13;;;1.83;;
1204;SDS011;592;48.764;9.174;2022-10-16T11:08:26;6.60;;;2.10;;
1204;SDS011;592;48.764;9.174;2022-10-16T11:11:00;4.13;;;2.10;;
1204;SDS011;592;48.764;9.174;2022-10-16T11:13:30;6.80;;;2.00;;
1204;SDS011;592;48.764;9.174;2022-10-16T11:16:02;3.80;;;1.73;;
1204;SDS011;592;48.764;9.174;2022-10-16T11:18:43;5.40;;;2.07;;
1204;SDS011;592;48.764;9.174;2022-10-16T11:21:16;3.97;;;1.90;;
1204;SDS011;592;48.764;9.174;2022-10-16T11:23:46;6.23;;;2.07;;
1204;SDS011;592;48.764;9.174;2022-10-16T11:26:21;6.43;;;2.00;;
1204;SDS011;592;48.764;9.174;2022-10-16T11:28:53;7.67;;;2.70;;
1204;SDS011;592;48.764;9.174;2022-10-16T11:31:23;4.43;;;1.90;;
1204;SDS011;592;48.764;9.174;2022-10-16T11:33:59;4.10;;;2.03;;
1204;SDS011;592;48.764;9.174;2022-10-16T11:36:32;6.70;;;2.10;;
1204;SDS011;592;48.764;9.174;2022-10-16T11:39:03;4.73;;;1.80;;
1204;SDS011;592;48.764;9.174;2022-10-16T11:41:42;4.73;;;2.03;;
1204;SDS011;592;48.764;9.174;2022-10-16T11:44:20;3.83;;;2.03;;
1204;SDS011;592;48.764;9.174;2022-10-16T11:47:01;5.47;;;1.87;;
1204;SDS011;592;48.764;9.174;2022-10-16T11:49:37;4.63;;;2.37;;
1204;SDS011;592;48.764;9.174;2022-10-16T11:52:07;7.73;;;2.00;;
1204;SDS011;592;48.764;9.174;2022-10-16T11:54:41;5.00;;;1.83;;
1204;SDS011;592;48.764;9.174;2022-10-16T11:57:16;5.00;;;1.80;;
1204;SDS011;592;48.764;9.174;2022-10-16T11:59:47;4.10;;;2.03;;
1204;SDS011;592;48.764;9.174;2022-10-16T12:02:26;5.00;;;1.90;;
1204;SDS011;592;48.764;9.174;2022-10-16T12:05:03;4.70;;;1.93;;
1204;SDS011;592;48.764;9.174;2022-10-16T12:07:39;3.93;;;1.73;;
1204;SDS011;592;48.764;9.174;2022-10-16T12:10:18;4.27;;;1.80;;
1204;SDS011;592;48.764;9.174;2022-10-16T12:12:48;4.30;;;1.97;;
1204;SDS011;592;48.764;9.174;2022-10-16T12:15:20;6.30;;;1.90;;
1204;SDS011;592;48.764;9.174;2022-10-16T12:17:49;3.50;;;1.73;;
1204;SDS011;592;48.764;9.174;2022-10-16T12:20:24;3.97;;;1.80;;
1204;SDS011;592;48.764;9.174;2022-10-16T12:22:56;4.90;;;2.30;;
1204;SDS011;592;48.764;9.174;2022-10-16T12:25:25;8.03;;;1.90;;
1204;SDS011;592;48.764;9.174;2022-10-16T12:27:56;10.13;;;2.03;;
1204;SDS011;592;48.764;9.174;2022-10-16T12:30:26;6.67;;;2.50;;
1204;SDS011;592;48.764;9.174;2022-10-16T12:32:54;4.77;;;1.73;;
1204;SDS011;592;48.764;9.174;2022-10-16T12:35:23;4.40;;;1.90;;
1204;SDS011;592;48.764;9.174;2022-10-16T12:37:52;7.07;;;1.80;;
1204;SDS011;592;48.764;9.174;2022-10-16T12:40:24;6.00;;;2.00;;
1204;SDS011;592;48.764;9.174;2022-10-16T12:42:54;4.70;;;1.87;;
1204;SDS011;592;48.764;9.174;2022-10-16T12:45:26;6.20;;;2.03;;
1204;SDS011;592;48.764;9.174;2022-10-16T12:47:56;7.57;;;2.37;;
1204;SDS011;592;48.764;9.174;2022-10-16T12:50:25;4.40;;;1.80;;
1204;SDS011;592;48.764;9.174;2022-10-16T12:52:55;4.90;;;1.80;;
1204;SDS011;592;48.764;9.174;2022-10-16T12:55:22;4.37;;;1.83;;
1204;SDS011;592;48.764;9.174;2022-10-16T12:57:56;4.40;;;2.00;;
1204;SDS011;592;48.764;9.174;2022-10-16T13:00:36;4.50;;;2.37;;
1204;SDS011;592;48.764;9.174;2022-10-16T13:06:07;4.53;;;2.20;;
1204;SDS011;592;48.764;9.174;2022-10-16T13:08:48;6.50;;;2.37;;
1204;SDS011;592;48.764;9.174;2022-10-16T13:11:41;5.27;;;2.30;;
1204;SDS011;592;48.764;9.174;2022-10-16T13:14:25;4.23;;;2.00;;
1204;SDS011;592;48.764;9.174;2022-10-16T13:17:08;7.03;;;2.67;;
1204;SDS011;592;48.764;9.174;2022-10-16T13:19:44;4.73;;;2.30;;
1204;SDS011;592;48.764;9.174;2022-10-16T13:22:21;5.40;;;2.20;;
1204;SDS011;592;48.764;9.174;2022-10-16T13:24:55;6.00;;;2.60;;
1204;SDS011;592;48.764;9.174;2022-10-16T13:27:34;4.13;;;2.23;;
1204;SDS011;592;48.764;9.174;2022-10-16T13:30:09;4.43;;;2.20;;
1204;SDS011;592;48.764;9.174;2022-10-16T13:32:40;6.97;;;2.50;;
1204;SDS011;592;48.764;9.174;2022-10-16T13:35:20;5.30;;;2.70;;
1204;SDS011;592;48.764;9.174;2022-10-16T13:37:48;5.43;;;2.40;;
1204;SDS011;592;48.764;9.174;2022-10-16T13:40:19;5.17;;;2.40;;
1204;SDS011;592;48.764;9.174;2022-10-16T13:42:47;5.43;;;2.67;;
1204;SDS011;592;48.764;9.174;2022-10-16T13:45:19;5.90;;;2.40;;
1204;SDS011;592;48.764;9.174;2022-10-16T13:47:48;6.20;;;2.50;;
1204;SDS011;592;48.764;9.174;2022-10-16T13:50:16;3.90;;;2.20;;
1204;SDS011;592;48.764;9.174;2022-10-16T13:52:44;5.20;;;2.57;;
1204;SDS011;592;48.764;9.174;2022-10-16T13:55:11;5.37;;;2.60;;
1204;SDS011;592;48.764;9.174;2022-10-16T13:57:39;4.47;;;2.57;;
1204;SDS011;592;48.764;9.174;2022-10-16T14:00:17;6.33;;;2.60;;
1204;SDS011;592;48.764;9.174;2022-10-16T14:02:45;6.65;;;2.60;;
1204;SDS011;592;48.764;9.174;2022-10-16T14:05:20;5.75;;;2.50;;
1204;SDS011;592;48.764;9.174;2022-10-16T14:07:48;5.87;;;2.50;;
1204;SDS011;592;48.764;9.174;2022-10-16T14:10:20;5.50;;;3.03;;
1204;SDS011;592;48.764;9.174;2022-10-16T14:12:56;10.10;;;3.20;;
1204;SDS011;592;48.764;9.174;2022-10-16T14:15:25;7.27;;;3.00;;
1204;SDS011;592;48.764;9.174;2022-10-16T14:17:54;7.80;;;2.80;;
1204;SDS011;592;48.764;9.174;2022-10-16T14:20:22;5.83;;;2.60;;
1204;SDS011;592;48.764;9.174;2022-10-16T14:22:58;5.90;;;2.57;;
1204;SDS011;592;48.764;9.174;2022-10-16T14:25:27;4.67;;;2.50;;
1204;SDS011;592;48.764;9.174;2022-10-16T14:27:59;6.57;;;2.40;;
1204;SDS011;592;48.764;9.174;2022-10-16T14:30:27;6.20;;;2.63;;
1204;SDS011;592;48.764;9.174;2022-10-16T14:32:57;4.03;;;2.13;;
1204;SDS011;592;48.764;9.174;2022-10-16T14:35:26;4.70;;;2.73;;
1204;SDS011;592;48.764;9.174;2022-10-16T14:37:55;5.80;;;2.20;;
1204;SDS011;592;48.764;9.174;2022-10-16T14:40:25;6.37;;;2.50;;
1204;SDS011;592;48.764;9.174;2022-10-16T14:42:53;5.50;;;2.63;;
1204;SDS011;592;48.764;9.174;2022-10-16T14:45:20;4.87;;;2.27;;
1204;SDS011;592;48.764;9.174;2022-10-16T14:47:50;4.10;;;2.13;;
1204;SDS011;592;48.764;9.174;2022-10-16T14:50:22;7.10;;;2.47;;
1204;SDS011;592;48.764;9.174;2022-10-16T14:52:49;7.77;;;2.83;;
1204;SDS011;592;48.764;9.174;2022-10-16T14:55:17;4.83;;;2.60;;
1204;SDS011;592;48.764;9.174;2022-10-16T14:57:45;5.07;;;2.93;;
1204;SDS011;592;48.764;9.174;2022-10-16T15:00:14;5.60;;;2.80;;
1204;SDS011;592;48.764;9.174;2022-10-16T15:02:45;5.30;;;2.63;;
1204;SDS011;592;48.764;9.174;2022-10-16T15:05:14;6.03;;;2.60;;
1204;SDS011;592;48.764;9.174;2022-10-16T15:07:44;6.90;;;2.47;;
1204;SDS011;592;48.764;9.174;2022-10-16T15:10:12;5.60;;;2.70;;
1204;SDS011;592;48.764;9.174;2022-10-16T15:12:39;9.37;;;2.57;;
1204;SDS011;592;48.764;9.174;2022-10-16T15:15:15;6.17;;;2.57;;
1204;SDS011;592;48.764;9.174;2022-10-16T15:17:51;5.30;;;2.80;;
1204;SDS011;592;48.764;9.174;2022-10-16T15:20:21;8.83;;;2.53;;
1204;SDS011;592;48.764;9.174;2022-10-16T15:22:56;6.20;;;2.60;;
1204;SDS011;592;48.764;9.174;2022-10-16T15:25:37;4.80;;;2.60;;
1204;SDS011;592;48.764;9.174;2022-10-16T15:28:05;5.40;;;2.33;;
1204;SDS011;592;48.764;9.174;2022-10-16T15:30:33;7.60;;;2.70;;
1204;SDS011;592;48.764;9.174;2022-10-16T15:33:00;6.67;;;2.77;;
1204;SDS011;592;48.764;9.174;2022-10-16T15:35:28;6.00;;;3.20;;
1204;SDS011;592;48.764;9.174;2022-10-16T15:37:57;5.90;;;2.90;;
1204;SDS011;592;48.764;9.174;2022-10-16T15:40:24;5.83;;;2.67;;
1204;SDS011;592;48.764;9.174;2022-10-16T15:42:53;8.93;;;2.90;;
1204;SDS011;592;48.764;9.174;2022-10-16T15:45:20;9.70;;;2.60;;
1204;SDS011;592;48.764;9.174;2022-10-16T15:47:46;5.67;;;2.47;;
1204;SDS011;592;48.764;9.174;2022-10-16T15:50:14;4.90;;;2.40;;
1204;SDS011;592;48.764;9.174;2022-10-16T15:52:41;5.00;;;2.73;;
1204;SDS011;592;48.764;9.174;2022-10-16T15:55:11;6.27;;;3.43;;
1204;SDS011;592;48.764;9.174;2022-10-16T15:57:39;8.03;;;3.80;;
1204;SDS011;592;48.764;9.174;2022-10-16T16:00:11;9.57;;;4.20;;
1204;SDS011;592;48.764;9.174;2022-10-16T16:02:39;5.03;;;2.87;;
1204;SDS011;592;48.764;9.174;2022-10-16T16:05:07;9.63;;;3.00;;
1204;SDS011;592;48.764;9.174;2022-10-16T16:07:35;11.17;;;3.80;;
1204;SDS011;592;48.764;9.174;2022-10-16T16:10:04;6.70;;;3.00;;
1204;SDS011;592;48.764;9.174;2022-10-16T16:12:34;8.40;;;4.03;;
1204;SDS011;592;48.764;9.174;2022-10-16T16:15:02;8.63;;;4.23;;
1204;SDS011;592;48.764;9.174;2022-10-16T16:17:31;6.70;;;3.63;;
1204;SDS011;592;48.764;9.174;2022-10-16T16:20:02;7.80;;;3.63;;
1204;SDS011;592;48.764;9.174;2022-10-16T16:22:30;8.30;;;3.90;;
1204;SDS011;592;48.764;9.174;2022-10-16T16:24:57;9.33;;;3.80;;
1204;SDS011;592;48.764;9.174;2022-10-16T16:27:24;7.80;;;3.50;;
1204;SDS011;592;48.764;9.174;2022-10-16T16:29:52;7.68;;;4.07;;
1204;SDS011;592;48.764;9.174;2022-10-16T16:32:20;7.83;;;4.47;;
1204;SDS011;592;48.764;9.174;2022-10-16T16:34:47;10.00;;;4.60;;
1204;SDS011;592;48.764;9.174;2022-10-16T16:37:13;9.03;;;3.73;;
1204;SDS011;592;48.764;9.174;2022-10-16T16:39:40;12.10;;;4.30;;
1204;SDS011;592;48.764;9.174;2022-10-16T16:42:08;8.47;;;3.70;;
1204;SDS011;592;48.764;9.174;2022-10-16T16:44:35;6.70;;;3.83;;
1204;SDS011;592;48.764;9.174;2022-10-16T16:47:04;10.23;;;4.40;;
1204;SDS011;592;48.764;9.174;2022-10-16T16:49:32;7.63;;;3.90;;
1204;SDS011;592;48.764;9.174;2022-10-16T16:51:59;7.53;;;3.93;;
1204;SDS011;592;48.764;9.174;2022-10-16T16:54:26;9.13;;;4.00;;
1204;SDS011;592;48.764;9.174;2022-10-16T16:56:53;7.30;;;3.13;;
1204;SDS011;592;48.764;9.174;2022-10-16T16:59:20;7.57;;;3.07;;
1204;SDS011;592;48.764;9.174;2022-10-16T17:01:47;6.40;;;2.80;;
1204;SDS011;592;48.764;9.174;2022-10-16T17:04:17;6.60;;;3.27;;
1204;SDS011;592;48.764;9.174;2022-10-16T17:06:45;8.20;;;2.87;;
1204;SDS011;592;48.764;9.174;2022-10-16T17:09:11;9.57;;;2.93;;
1204;SDS011;592;48.764;9.174;2022-10-16T17:11:40;6.43;;;2.90;;
1204;SDS011;592;48.764;9.174;2022-10-16T17:14:11;7.10;;;2.87;;
1204;SDS011;592;48.764;9.174;2022-10-16T17:16:38;7.97;;;3.17;;
1204;SDS011;592;48.764;9.174;2022-10-16T17:19:10;8.53;;;3.30;;
1204;SDS011;592;48.764;9.174;2022-10-16T17:21:40;6.33;;;3.27;;
1204;SDS011;592;48.764;9.174;2022-10-16T17:24:07;6.53;;;3.43;;
1204;SDS011;592;48.764;9.174;2022-10-16T17:26:35;11.90;;;3.20;;
1204;SDS011;592;48.764;9.174;2022-10-16T17:29:05;7.70;;;3.40;;
1204;SDS011;592;48.764;9.174;2022-10-16T17:31:33;5.23;;;3.10;;
1204;SDS011;592;48.764;9.174;2022-10-16T17:34:01;7.13;;;3.40;;
1204;SDS011;592;48.764;9.174;2022-10-16T17:36:30;13.50;;;3.90;;
1204;SDS011;592;48.764;9.174;2022-10-16T17:38:59;6.63;;;3.33;;
1204;SDS011;592;48.764;9.174;2022-10-16T17:41:28;7.70;;;3.90;;
1204;SDS011;592;48.764;9.174;2022-10-16T17:43:56;5.50;;;3.80;;
1204;SDS011;592;48.764;9.174;2022-10-16T17:46:23;7.40;;;4.43;;
1204;SDS011;592;48.764;9.174;2022-10-16T17:48:50;12.20;;;4.23;;
1204;SDS011;592;48.764;9.174;2022-10-16T17:51:20;8.60;;;4.20;;
1204;SDS011;592;48.764;9.174;2022-10-16T17:53:50;9.93;;;3.80;;
1204;SDS011;592;48.764;9.174;2022-10-16T17:56:19;8.37;;;4.27;;
1204;SDS011;592;48.764;9.174;2022-10-16T17:58:47;8.10;;;4.10;;
1204;SDS011;592;48.764;9.174;2022-10-16T18:22:59;9.67;;;5.70;;
1204;SDS011;592;48.764;9.174;2022-10-16T18:28:06;8.27;;;4.50;;
1204;SDS011;592;48.764;9.174;2022-10-16T18:30:42;10.80;;;4.90;;
